KPYM

Plymouth Municipal Airport

Plymouth, Massachusetts, USA
METAR KPYM 171852Z AUTO 25015G23KT 10SM SCT060 17/04 A2975 RMK AO2 PK WND 24026/1838 SLP076 T01720039
Observed Flight Rules
Oct-17 @ 18:52 UTC (32 minutes ago) Visual Flight Rules
Wind Visibility Clouds
250° at 15 knots
 Gusting to 23 knots
10 miles
  • Scattered at 6,000' AGL
Temperatures Readings
Current 17°C / 63°F
Dewpoint 4°C / 39°F
Humidity 42%
Altimeter 29.75" Hg
Pressure 1007.6 hPa
Elevation 43
METAR KPYM 171852Z AUTO 25015G23KT 10SM SCT060 17/04 A2975 RMK AO2 PK WND 24026/1838 SLP076 T01720039
Observed Flight Rules
Oct-17 @ 18:52 UTC
(32 minutes ago)
VFR
Wind Visibility
250° at 15 knots
 Gusting to 23 knots
10 miles
Clouds
  • Scattered at 6,000' AGL
Temperature Dewpoint
17°C / 63°F 4°C / 39°F
Humidity Altimeter Pressure
42% 29.75" Hg 1007.6 hPa